Time;durP1;ratioP1;P1;durP2;ratioP2;P2;SDS_P1;SDS_P2;PMS_P1;PMS_P2;Temp;Humidity;BMP_temperature;BMP_pressure;BME280_temperature;BME280_humidity;BME280_pressure;Samples;Min_cycle;Max_cycle;Signal;HPM_P1;HPM_P2
2023/02/28 00:00:11;;;;;;;32.53;19.40;;;;;;;8.81;100.00;95315.09;5033434;28;20989;-73
2023/02/28 00:02:39;;;;;;;29.87;19.77;;;;;;;8.83;100.00;95316.66;5033794;28;20535;-73
2023/02/28 00:05:07;;;;;;;35.97;19.47;;;;;;;8.86;100.00;95324.28;5033749;28;20446;-73
2023/02/28 00:07:34;;;;;;;44.93;24.83;;;;;;;8.91;100.00;95327.41;5033417;28;20452;-73
2023/02/28 00:10:01;;;;;;;65.37;37.37;;;;;;;8.97;100.00;95321.75;5033384;28;20804;-74
2023/02/28 00:12:28;;;;;;;58.77;32.77;;;;;;;9.06;100.00;95329.88;5033498;28;20452;-74
2023/02/28 00:14:56;;;;;;;40.03;23.60;;;;;;;9.05;100.00;95329.03;5033302;28;20815;-73
2023/02/28 00:17:23;;;;;;;35.03;21.53;;;;;;;9.13;100.00;95324.09;5033348;28;20444;-74
2023/02/28 00:19:51;;;;;;;30.37;18.83;;;;;;;9.16;100.00;95320.41;5033516;28;20510;-73
2023/02/28 00:22:19;;;;;;;31.53;19.00;;;;;;;9.20;100.00;95319.22;5033362;28;20453;-73
2023/02/28 00:24:47;;;;;;;22.67;15.47;;;;;;;9.22;100.00;95328.66;5033319;28;20460;-74
2023/02/28 00:27:14;;;;;;;33.33;20.73;;;;;;;9.19;100.00;95323.63;5033027;28;20470;-73
2023/02/28 00:29:41;;;;;;;29.90;21.53;;;;;;;9.12;100.00;95321.59;4998296;28;20459;-73
2023/02/28 00:32:09;;;;;;;33.60;23.70;;;;;;;9.03;100.00;95330.09;5032942;28;20452;-73
2023/02/28 00:34:37;;;;;;;26.40;16.83;;;;;;;8.94;100.00;95331.56;5032772;28;20862;-74
2023/02/28 00:37:05;;;;;;;27.10;16.80;;;;;;;8.94;100.00;95331.56;5033026;28;20947;-73
2023/02/28 00:39:33;;;;;;;27.93;15.57;;;;;;;8.95;100.00;95317.53;5032837;28;20526;-73
2023/02/28 00:42:00;;;;;;;24.17;15.80;;;;;;;8.98;100.00;95301.66;5032703;28;20444;-73
2023/02/28 00:44:27;;;;;;;27.57;15.73;;;;;;;9.06;100.00;95312.41;5033017;28;20443;-72
2023/02/28 00:46:55;;;;;;;27.30;17.27;;;;;;;9.13;100.00;95311.00;5033033;28;20448;-71
2023/02/28 00:49:24;;;;;;;27.13;16.00;;;;;;;9.10;100.00;95303.38;4998405;28;20540;-73
2023/02/28 00:51:51;;;;;;;35.13;18.77;;;;;;;9.14;100.00;95307.44;4997153;28;20819;-74
2023/02/28 00:54:18;;;;;;;29.50;19.43;;;;;;;9.17;100.00;95301.13;5032852;28;20445;-73
2023/02/28 00:56:45;;;;;;;32.60;20.83;;;;;;;9.23;100.00;95298.91;5032767;28;20448;-75
2023/02/28 00:59:12;;;;;;;41.40;22.47;;;;;;;9.26;100.00;95318.81;5013785;28;20932;-72
2023/02/28 01:01:39;;;;;;;36.00;23.17;;;;;;;9.25;100.00;95315.34;5032860;28;20449;-73
2023/02/28 01:04:06;;;;;;;32.07;21.67;;;;;;;9.27;100.00;95321.31;5032464;28;20507;-73
2023/02/28 01:06:34;;;;;;;37.37;21.90;;;;;;;9.33;100.00;95330.50;5032762;28;20510;-73
2023/02/28 01:09:01;;;;;;;32.30;20.57;;;;;;;9.37;100.00;95328.50;5032468;28;20455;-73
2023/02/28 01:11:28;;;;;;;35.20;22.07;;;;;;;9.27;100.00;95320.47;5032375;28;20861;-73
2023/02/28 01:13:54;;;;;;;35.10;20.60;;;;;;;9.10;100.00;95313.84;5032511;28;21002;-73
2023/02/28 01:16:21;;;;;;;34.77;19.90;;;;;;;9.02;100.00;95324.03;5032552;28;20471;-73
2023/02/28 01:18:48;;;;;;;27.07;19.17;;;;;;;8.94;100.00;95319.31;5032381;28;20501;-73
2023/02/28 01:21:17;;;;;;;37.13;20.63;;;;;;;8.95;100.00;95313.16;5032595;28;20474;-73
2023/02/28 01:23:45;;;;;;;37.07;20.00;;;;;;;8.89;100.00;95302.28;5032213;28;20501;-74
2023/02/28 01:26:15;;;;;;;34.40;19.47;;;;;;;8.95;100.00;95312.31;5013779;28;20440;-73
2023/02/28 01:28:42;;;;;;;36.30;21.60;;;;;;;8.96;100.00;95309.63;5032169;28;20448;-73
2023/02/28 01:31:10;;;;;;;38.53;22.10;;;;;;;8.94;100.00;95298.38;5032123;28;20456;-73
2023/02/28 01:33:37;;;;;;;33.37;23.10;;;;;;;8.98;100.00;95309.50;5031842;28;20486;-73
2023/02/28 01:36:06;;;;;;;35.47;22.90;;;;;;;9.00;100.00;95305.81;5031789;28;20815;-73
2023/02/28 01:38:34;;;;;;;32.47;20.27;;;;;;;9.00;100.00;95316.28;4997728;28;20799;-73
2023/02/28 01:41:02;;;;;;;32.57;20.63;;;;;;;9.07;100.00;95305.38;5032221;28;20541;-72
2023/02/28 01:43:31;;;;;;;32.57;19.43;;;;;;;9.00;100.00;95311.06;5032199;28;20445;-73
2023/02/28 01:45:59;;;;;;;29.60;18.20;;;;;;;9.06;100.00;95314.19;5032044;28;20449;-72
2023/02/28 01:48:29;;;;;;;36.40;18.93;;;;;;;8.99;100.00;95313.78;5032094;28;20991;-74
2023/02/28 01:51:01;;;;;;;33.50;20.50;;;;;;;8.96;100.00;95307.00;5032291;28;20456;-72
2023/02/28 01:53:33;;;;;;;26.77;18.53;;;;;;;8.82;100.00;95307.13;5032062;28;20543;-72
2023/02/28 01:55:59;;;;;;;26.93;18.00;;;;;;;8.77;100.00;95311.84;5032123;28;20452;-74
2023/02/28 01:58:28;;;;;;;31.57;18.97;;;;;;;8.78;100.00;95315.31;5031917;28;20447;-73
2023/02/28 02:00:54;;;;;;;32.93;20.30;;;;;;;8.80;100.00;95318.66;5031699;28;20494;-73
2023/02/28 02:03:21;;;;;;;32.40;21.13;;;;;;;8.76;100.00;95325.88;5032875;28;20456;-72
2023/02/28 02:05:48;;;;;;;26.77;17.73;;;;;;;8.73;100.00;95322.66;5036013;28;20569;-73
2023/02/28 02:08:26;;;;;;;31.03;19.13;;;;;;;8.72;100.00;95318.38;5036026;28;20517;-73
2023/02/28 02:10:55;;;;;;;32.77;18.93;;;;;;;8.76;100.00;95314.59;5036131;28;20443;-73
2023/02/28 02:13:47;;;;;;;31.67;18.27;;;;;;;8.80;100.00;95316.88;5035828;28;20445;-73
2023/02/28 02:16:29;;;;;;;28.27;18.17;;;;;;;8.83;100.00;95321.03;4994207;28;20453;-71
2023/02/28 02:19:02;;;;;;;24.97;16.40;;;;;;;8.89;100.00;95325.84;4999622;28;20438;-73
2023/02/28 02:21:55;;;;;;;29.83;18.30;;;;;;;8.94;100.00;95321.09;4999729;28;20580;-73
2023/02/28 02:24:43;;;;;;;25.63;17.13;;;;;;;8.94;100.00;95315.88;5001133;28;20466;-73
2023/02/28 02:27:45;;;;;;;27.90;16.87;;;;;;;8.94;100.00;95311.47;4970010;28;20454;-73
2023/02/28 02:30:37;;;;;;;27.03;17.27;;;;;;;8.98;100.00;95312.13;4963063;29;20453;-73
2023/02/28 02:33:15;;;;;;;30.00;18.97;;;;;;;9.00;100.00;95313.69;4960325;29;20459;-73
2023/02/28 02:35:53;;;;;;;30.33;20.13;;;;;;;9.03;100.00;95309.16;4964352;29;20452;-72
2023/02/28 02:38:31;;;;;;;36.47;21.27;;;;;;;9.00;100.00;95318.06;4961333;29;20448;-73
2023/02/28 02:41:07;;;;;;;40.20;18.30;;;;;;;9.00;100.00;95315.47;4961817;29;20530;-73
2023/02/28 02:43:36;;;;;;;31.93;17.87;;;;;;;8.97;100.00;95316.50;4961223;29;20479;-74
2023/02/28 02:46:06;;;;;;;32.27;19.00;;;;;;;8.98;100.00;95325.19;4961383;29;20486;-73
2023/02/28 02:48:37;;;;;;;29.67;16.93;;;;;;;8.89;100.00;95328.47;4962103;29;20447;-74
2023/02/28 02:51:11;;;;;;;28.03;18.07;;;;;;;8.64;100.00;95317.09;4964818;29;20447;-73
2023/02/28 02:53:43;;;;;;;32.17;17.07;;;;;;;8.43;100.00;95316.00;4984646;28;20453;-73
2023/02/28 02:56:12;;;;;;;41.30;24.37;;;;;;;8.36;100.00;95333.03;5002484;28;20477;-73
2023/02/28 02:58:42;;;;;;;40.43;23.13;;;;;;;8.31;100.00;95342.94;5002222;28;20503;-73
2023/02/28 03:01:14;;;;;;;31.40;19.50;;;;;;;7.93;100.00;95340.34;5003023;28;20515;-73
2023/02/28 03:03:41;;;;;;;32.53;20.17;;;;;;;7.61;100.00;95348.53;5005048;28;20454;-73
2023/02/28 03:06:10;;;;;;;33.50;21.20;;;;;;;7.53;100.00;95350.81;5010004;28;20439;-73
2023/02/28 03:08:38;;;;;;;30.70;19.30;;;;;;;7.56;100.00;95350.63;5043296;28;20891;-73
2023/02/28 03:11:08;;;;;;;33.37;19.70;;;;;;;7.38;100.00;95363.09;5044646;28;20723;-73
2023/02/28 03:14:03;;;;;;;36.50;18.90;;;;;;;7.46;100.00;95363.41;5044583;28;20446;-74
2023/02/28 03:16:37;;;;;;;33.70;19.40;;;;;;;7.29;100.00;95373.28;5043055;28;20442;-73
2023/02/28 03:19:18;;;;;;;36.00;21.73;;;;;;;7.17;100.00;95374.91;5044232;28;20443;-74
2023/02/28 03:21:55;;;;;;;29.37;19.37;;;;;;;7.06;100.00;95377.38;5042440;28;20493;-73
2023/02/28 03:24:30;;;;;;;30.83;18.03;;;;;;;7.10;100.00;95382.28;5037169;28;20446;-73
2023/02/28 03:27:07;;;;;;;36.60;19.20;;;;;;;6.92;100.00;95379.97;5002941;28;20454;-74
2023/02/28 03:29:38;;;;;;;45.93;21.60;;;;;;;7.05;100.00;95375.69;5035960;28;20936;-73
2023/02/28 03:32:14;;;;;;;42.03;22.47;;;;;;;7.21;100.00;95370.31;5036072;28;20459;-74
2023/02/28 03:34:45;;;;;;;38.20;21.50;;;;;;;7.28;100.00;95377.69;5036361;28;20481;-73
2023/02/28 03:37:19;;;;;;;51.63;24.23;;;;;;;7.42;100.00;95368.94;5001631;28;20512;-73
2023/02/28 03:39:52;;;;;;;39.53;22.77;;;;;;;7.43;100.00;95383.69;5036915;28;20454;-73
2023/02/28 03:42:22;;;;;;;44.10;22.17;;;;;;;7.43;100.00;95381.06;5034985;28;20454;-75
2023/02/28 03:44:54;;;;;;;39.80;23.13;;;;;;;7.44;100.00;95382.75;5035723;28;20502;-74
2023/02/28 03:47:26;;;;;;;39.67;22.07;;;;;;;7.59;100.00;95381.75;5035674;28;20810;-73
2023/02/28 03:49:57;;;;;;;47.63;22.40;;;;;;;7.62;100.00;95394.63;5036215;28;20450;-74
2023/02/28 03:52:31;;;;;;;37.53;22.47;;;;;;;7.40;100.00;95389.94;5035815;28;20443;-73
2023/02/28 03:55:06;;;;;;;41.00;20.50;;;;;;;7.59;100.00;95393.97;5035017;28;20447;-73
2023/02/28 03:57:39;;;;;;;38.43;22.30;;;;;;;7.78;100.00;95394.44;5034702;28;20446;-73
2023/02/28 04:00:10;;;;;;;47.60;24.43;;;;;;;7.83;100.00;95389.75;5035200;28;20555;-74
2023/02/28 04:02:37;;;;;;;52.00;22.00;;;;;;;7.95;100.00;95394.16;5000877;28;20442;-74
2023/02/28 04:05:05;;;;;;;42.13;23.67;;;;;;;8.03;100.00;95397.09;5036019;28;20965;-74
2023/02/28 04:07:34;;;;;;;43.20;22.33;;;;;;;8.06;100.00;95381.22;5035849;28;20448;-73
2023/02/28 04:10:00;;;;;;;56.23;22.97;;;;;;;8.00;100.00;95381.63;5035402;28;20455;-72
2023/02/28 04:12:27;;;;;;;81.50;21.50;;;;;;;7.95;100.00;95391.56;5053941;28;20453;-74
2023/02/28 04:14:54;;;;;;;61.23;19.57;;;;;;;7.89;100.00;95386.75;5055810;28;20454;-74
2023/02/28 04:17:21;;;;;;;62.30;22.53;;;;;;;7.90;100.00;95385.81;5052630;28;20455;-73
2023/02/28 04:19:47;;;;;;;54.40;22.30;;;;;;;7.92;100.00;95389.16;5039751;28;20521;-74
2023/02/28 04:22:14;;;;;;;42.90;22.70;;;;;;;7.89;100.00;95391.13;5035012;28;20863;-73
2023/02/28 04:24:42;;;;;;;85.20;23.17;;;;;;;7.84;100.00;95386.22;5034600;28;20500;-73
2023/02/28 04:27:10;;;;;;;50.53;20.80;;;;;;;7.83;100.00;95381.09;5034678;28;20852;-73
2023/02/28 04:29:37;;;;;;;90.90;25.77;;;;;;;7.76;100.00;95378.03;5034859;28;20482;-74
2023/02/28 04:32:03;;;;;;;49.87;23.37;;;;;;;7.72;100.00;95387.00;5034451;28;20510;-73
2023/02/28 04:34:32;;;;;;;66.77;26.70;;;;;;;7.59;100.00;95381.75;5034499;28;20466;-74
2023/02/28 04:37:00;;;;;;;51.27;19.80;;;;;;;7.27;100.00;95389.06;5034112;28;20450;-73
2023/02/28 04:39:27;;;;;;;83.67;24.60;;;;;;;7.18;100.00;95392.22;5034222;28;20454;-73
2023/02/28 04:41:55;;;;;;;58.13;19.03;;;;;;;7.00;100.00;95396.03;5034197;28;20489;-73
2023/02/28 04:44:23;;;;;;;76.90;21.03;;;;;;;6.94;100.00;95410.28;5034581;28;20438;-74
2023/02/28 04:46:50;;;;;;;85.97;20.20;;;;;;;6.89;100.00;95408.88;5033746;28;20971;-74
2023/02/28 04:49:17;;;;;;;77.43;21.20;;;;;;;7.02;100.00;95409.81;5034208;28;20496;-74
2023/02/28 04:51:44;;;;;;;114.83;23.93;;;;;;;7.11;100.00;95411.81;5034081;28;20447;-73
2023/02/28 04:54:11;;;;;;;60.37;21.10;;;;;;;7.16;100.00;95409.75;5034685;28;20439;-74
2023/02/28 04:56:37;;;;;;;80.20;26.40;;;;;;;7.43;100.00;95400.19;5033894;28;20446;-74
2023/02/28 04:59:05;;;;;;;36.77;21.30;;;;;;;7.45;100.00;95402.69;5034033;28;20453;-72
2023/02/28 05:01:34;;;;;;;54.40;22.67;;;;;;;7.30;100.00;95417.56;5034126;28;20585;-73
2023/02/28 05:04:03;;;;;;;39.57;20.03;;;;;;;7.43;100.00;95418.44;5034592;28;20504;-73
2023/02/28 05:06:32;;;;;;;106.83;25.43;;;;;;;7.47;100.00;95408.66;5033132;28;20450;-74
2023/02/28 05:08:59;;;;;;;115.23;22.87;;;;;;;7.31;100.00;95408.81;5034268;28;20442;-75
2023/02/28 05:11:33;;;;;;;83.07;27.23;;;;;;;7.17;100.00;95416.66;5033589;28;20509;-73
2023/02/28 05:14:00;;;;;;;90.00;23.67;;;;;;;7.33;100.00;95417.38;5034234;28;20454;-73
2023/02/28 05:16:28;;;;;;;94.07;24.20;;;;;;;7.42;100.00;95418.56;5033576;28;20454;-73
2023/02/28 05:18:55;;;;;;;70.50;23.77;;;;;;;7.47;100.00;95419.94;5053020;28;20854;-73
2023/02/28 05:21:27;;;;;;;65.67;24.27;;;;;;;7.57;100.00;95427.19;5052127;28;20497;-73
2023/02/28 05:23:55;;;;;;;48.63;23.00;;;;;;;7.66;100.00;95424.81;5053481;28;20453;-74
2023/02/28 05:26:22;;;;;;;37.03;22.63;;;;;;;7.81;100.00;95433.44;5053342;28;20449;-74
2023/02/28 05:28:49;;;;;;;39.00;20.30;;;;;;;7.85;100.00;95429.69;5053255;28;20515;-73
2023/02/28 05:31:16;;;;;;;35.80;19.50;;;;;;;7.93;100.00;95431.78;5053545;28;20449;-74
2023/02/28 05:33:44;;;;;;;34.00;21.10;;;;;;;7.92;100.00;95441.41;5017805;28;20565;-73
2023/02/28 05:36:11;;;;;;;34.60;21.87;;;;;;;7.93;100.00;95434.41;5053210;28;20452;-73
2023/02/28 05:38:37;;;;;;;34.37;18.90;;;;;;;7.97;100.00;95443.72;5052431;28;20452;-74
2023/02/28 05:41:08;;;;;;;37.50;20.60;;;;;;;7.98;100.00;95445.38;5034048;28;20483;-74
2023/02/28 05:43:36;;;;;;;37.30;19.10;;;;;;;7.95;100.00;95446.44;5053200;28;20449;-73
2023/02/28 05:46:05;;;;;;;37.27;19.53;;;;;;;7.94;100.00;95449.16;5052976;28;20444;-74
2023/02/28 05:48:32;;;;;;;32.50;18.53;;;;;;;7.91;100.00;95450.19;5052469;28;20785;-73
2023/02/28 05:51:02;;;;;;;41.70;21.23;;;;;;;7.97;100.00;95457.63;5052029;28;20446;-73
2023/02/28 05:53:32;;;;;;;28.87;18.37;;;;;;;8.04;100.00;95456.28;5051878;28;20519;-75
2023/02/28 05:55:59;;;;;;;35.03;20.43;;;;;;;8.03;100.00;95461.59;5052124;28;20503;-73
2023/02/28 05:58:30;;;;;;;32.57;20.07;;;;;;;7.97;100.00;95460.22;5017193;28;20866;-74
2023/02/28 06:00:57;;;;;;;36.20;21.10;;;;;;;8.10;100.00;95459.44;5052183;28;20450;-73
2023/02/28 06:03:24;;;;;;;36.37;19.53;;;;;;;8.14;100.00;95456.53;5051945;28;20457;-73
2023/02/28 06:05:51;;;;;;;33.30;19.33;;;;;;;8.07;100.00;95460.44;5052178;28;20468;-73
2023/02/28 06:08:19;;;;;;;39.77;19.73;;;;;;;8.18;100.00;95449.31;5052338;28;20447;-74
2023/02/28 06:10:46;;;;;;;51.13;21.07;;;;;;;8.30;100.00;95456.31;5051792;28;21207;-74
2023/02/28 06:13:13;;;;;;;34.30;20.57;;;;;;;8.31;100.00;95453.59;5051879;28;20456;-73
2023/02/28 06:15:40;;;;;;;42.80;23.60;;;;;;;8.35;100.00;95456.88;5052333;28;20533;-74
2023/02/28 06:18:07;;;;;;;32.70;19.20;;;;;;;8.45;100.00;95462.34;5051913;28;20528;-74
2023/02/28 06:20:34;;;;;;;41.93;21.47;;;;;;;8.32;100.00;95457.06;5051469;28;20446;-74
2023/02/28 06:23:01;;;;;;;31.83;20.00;;;;;;;8.29;100.00;95471.19;5051805;28;20977;-73
2023/02/28 06:25:29;;;;;;;34.37;22.70;;;;;;;8.16;100.00;95454.63;5051836;28;20976;-72
2023/02/28 06:27:56;;;;;;;38.40;23.10;;;;;;;8.31;100.00;95460.59;5051877;28;20453;-73
2023/02/28 06:30:26;;;;;;;41.10;22.07;;;;;;;8.34;100.00;95466.50;5052091;28;20442;-72
2023/02/28 06:32:53;;;;;;;35.30;19.80;;;;;;;8.15;100.00;95459.97;5049547;28;20470;-73
2023/02/28 06:35:20;;;;;;;40.13;21.50;;;;;;;8.11;100.00;95461.94;5051141;28;20846;-73
2023/02/28 06:37:47;;;;;;;30.73;18.07;;;;;;;8.02;100.00;95460.75;5052207;28;20921;-73
2023/02/28 06:40:14;;;;;;;30.03;20.00;;;;;;;8.15;100.00;95462.59;5052232;28;20530;-74
2023/02/28 06:42:42;;;;;;;35.40;20.50;;;;;;;8.19;100.00;95464.06;5047867;28;20490;-74
2023/02/28 06:45:10;;;;;;;32.03;19.50;;;;;;;8.22;100.00;95469.06;5045995;28;20533;-75
2023/02/28 06:47:37;;;;;;;35.77;20.80;;;;;;;8.21;100.00;95467.41;5040631;28;20459;-74
2023/02/28 06:50:05;;;;;;;35.37;22.00;;;;;;;8.20;100.00;95448.25;5053511;28;20496;-74
2023/02/28 06:52:32;;;;;;;35.60;22.10;;;;;;;8.20;100.00;95468.34;5041175;28;20859;-74
2023/02/28 06:55:00;;;;;;;35.10;20.90;;;;;;;8.24;100.00;95472.41;5046589;28;20938;-72
2023/02/28 06:57:30;;;;;;;31.77;20.33;;;;;;;8.07;100.00;95476.97;5051495;28;21161;-74
2023/02/28 06:59:59;;;;;;;28.23;20.23;;;;;;;8.18;100.00;95467.59;5054752;28;20940;-74
2023/02/28 07:02:26;;;;;;;36.47;21.20;;;;;;;8.21;100.00;95472.63;5049520;28;20571;-74
2023/02/28 07:04:53;;;;;;;34.00;22.00;;;;;;;8.19;100.00;95475.34;5054274;28;20450;-74
2023/02/28 07:07:20;;;;;;;33.20;19.50;;;;;;;8.02;100.00;95473.81;5034343;28;20851;-73
2023/02/28 07:09:47;;;;;;;27.87;18.33;;;;;;;8.12;100.00;95473.25;5034946;28;20428;-73
2023/02/28 07:12:14;;;;;;;35.47;22.37;;;;;;;8.13;100.00;95473.16;4999662;28;20455;-74
2023/02/28 07:14:40;;;;;;;34.40;21.03;;;;;;;8.11;100.00;95467.19;5033494;28;20499;-74
2023/02/28 07:17:11;;;;;;;30.57;19.90;;;;;;;8.25;100.00;95469.72;4999744;28;20440;-74
2023/02/28 07:19:38;;;;;;;35.80;21.90;;;;;;;8.34;100.00;95469.13;5035148;28;20451;-72
2023/02/28 07:22:05;;;;;;;33.30;21.30;;;;;;;8.38;100.00;95465.38;5035099;28;20498;-74
2023/02/28 07:24:33;;;;;;;36.07;22.03;;;;;;;8.33;100.00;95469.19;5015946;28;20876;-73
2023/02/28 07:27:00;;;;;;;39.33;20.07;;;;;;;8.36;100.00;95471.63;5034551;28;20460;-74
2023/02/28 07:29:27;;;;;;;33.93;20.80;;;;;;;8.22;100.00;95472.53;5034786;28;20978;-73
2023/02/28 07:31:54;;;;;;;36.33;19.63;;;;;;;8.00;100.00;95467.88;5034572;28;20448;-72
2023/02/28 07:34:23;;;;;;;38.93;21.40;;;;;;;8.03;100.00;95467.66;5034047;28;21029;-73
2023/02/28 07:36:53;;;;;;;33.40;19.80;;;;;;;8.16;100.00;95464.25;5034553;28;20626;-73
2023/02/28 07:39:20;;;;;;;40.37;21.20;;;;;;;8.17;100.00;95463.31;5034059;28;20451;-73
2023/02/28 07:41:46;;;;;;;40.13;20.10;;;;;;;8.32;100.00;95467.50;5034276;28;20561;-73
2023/02/28 07:44:13;;;;;;;38.10;21.70;;;;;;;8.38;100.00;95472.34;5034343;28;21024;-73
2023/02/28 07:46:40;;;;;;;33.43;20.30;;;;;;;8.51;100.00;95472.38;5034038;28;20776;-73
2023/02/28 07:49:07;;;;;;;37.77;18.63;;;;;;;8.45;100.00;95463.19;5034126;28;20448;-73
2023/02/28 07:51:35;;;;;;;35.63;19.90;;;;;;;8.54;100.00;95466.94;5033949;28;20516;-73
2023/02/28 07:54:02;;;;;;;54.00;22.27;;;;;;;8.68;100.00;95467.72;5033906;28;20449;-73
2023/02/28 07:56:29;;;;;;;38.10;19.90;;;;;;;8.79;100.00;95459.09;5034063;28;20503;-73
2023/02/28 07:58:55;;;;;;;42.57;22.43;;;;;;;8.96;100.00;95461.41;5033762;28;20452;-73
2023/02/28 08:01:22;;;;;;;49.13;20.60;;;;;;;8.97;100.00;95462.25;5033361;28;20794;-73
2023/02/28 08:03:49;;;;;;;32.67;20.23;;;;;;;9.12;100.00;95465.56;5033483;28;20815;-74
2023/02/28 08:06:19;;;;;;;31.10;19.60;;;;;;;9.12;100.00;95458.56;5033390;28;20926;-73
2023/02/28 08:08:47;;;;;;;36.17;20.27;;;;;;;9.22;100.00;95469.22;5033512;28;20457;-74
2023/02/28 08:11:14;;;;;;;36.17;22.07;;;;;;;9.38;100.00;95464.56;5033173;28;20511;-74
2023/02/28 08:13:42;;;;;;;37.77;22.20;;;;;;;9.57;100.00;95478.06;5033175;28;20457;-73
2023/02/28 08:16:09;;;;;;;38.80;21.00;;;;;;;9.62;100.00;95469.84;5033118;28;20462;-74
2023/02/28 08:18:35;;;;;;;42.47;20.67;;;;;;;9.62;100.00;95475.09;4998359;28;20464;-73
2023/02/28 08:21:07;;;;;;;31.63;19.57;;;;;;;9.62;100.00;95454.13;5033521;28;20441;-74
2023/02/28 08:23:34;;;;;;;41.77;23.73;;;;;;;9.66;100.00;95450.34;5033055;28;20988;-73
2023/02/28 08:26:04;;;;;;;49.27;23.37;;;;;;;9.87;100.00;95466.31;4998049;28;20545;-74
2023/02/28 08:28:31;;;;;;;35.20;20.50;;;;;;;9.84;100.00;95469.16;5033296;28;20450;-72
2023/02/28 08:30:58;;;;;;;43.33;23.60;;;;;;;9.81;100.00;95470.19;5032708;28;20446;-73
2023/02/28 08:33:26;;;;;;;37.47;20.50;;;;;;;10.00;100.00;95469.69;5032944;28;20463;-73
2023/02/28 08:35:55;;;;;;;40.53;19.77;;;;;;;10.07;100.00;95464.81;5033138;28;20453;-74
2023/02/28 08:38:22;;;;;;;30.47;17.53;;;;;;;10.14;100.00;95472.16;5032998;28;20544;-72
2023/02/28 08:40:49;;;;;;;33.23;18.40;;;;;;;10.31;100.00;95476.16;5032833;28;20446;-74
2023/02/28 08:43:17;;;;;;;30.70;17.50;;;;;;;10.27;100.00;95472.09;4997707;28;20482;-73
2023/02/28 08:45:44;;;;;;;23.17;17.07;;;;;;;10.39;100.00;95470.34;5032746;28;20932;-73
2023/02/28 08:48:10;;;;;;;20.93;12.60;;;;;;;10.40;100.00;95467.59;5032778;28;20454;-73
2023/02/28 08:50:37;;;;;;;28.63;13.50;;;;;;;10.51;100.00;95469.44;5032480;28;20723;-74
2023/02/28 08:53:04;;;;;;;28.73;13.73;;;;;;;10.71;100.00;95475.81;5032840;28;20446;-72
2023/02/28 08:55:31;;;;;;;25.50;13.13;;;;;;;10.76;100.00;95474.50;5032454;28;20442;-74
2023/02/28 08:57:58;;;;;;;24.10;11.90;;;;;;;11.10;100.00;95477.16;5032863;28;20452;-73
2023/02/28 09:00:26;;;;;;;34.47;13.47;;;;;;;11.21;100.00;95479.78;5032384;28;20504;-74
2023/02/28 09:02:54;;;;;;;32.93;14.07;;;;;;;11.47;100.00;95472.47;5032194;28;20490;-74
2023/02/28 09:05:21;;;;;;;26.80;11.77;;;;;;;11.66;100.00;95477.97;5032683;28;20460;-73
2023/02/28 09:07:47;;;;;;;22.87;10.80;;;;;;;11.37;96.65;95489.94;5032427;28;20512;-74
2023/02/28 09:10:14;;;;;;;29.27;10.77;;;;;;;11.49;97.78;95479.28;4997266;28;20434;-74
2023/02/28 09:12:41;;;;;;;19.43;12.17;;;;;;;11.75;98.27;95477.22;5031547;28;20454;-74
2023/02/28 09:15:09;;;;;;;26.00;12.33;;;;;;;12.02;97.75;95483.88;4997499;28;20442;-72
2023/02/28 09:17:37;;;;;;;22.17;11.70;;;;;;;12.28;97.51;95482.59;5032235;28;20497;-73
2023/02/28 09:20:04;;;;;;;23.83;11.87;;;;;;;12.32;93.16;95493.69;5032200;28;20450;-73
2023/02/28 09:22:32;;;;;;;12.90;10.27;;;;;;;12.34;91.26;95483.88;5032225;28;20493;-73
2023/02/28 09:24:59;;;;;;;36.77;11.23;;;;;;;12.10;92.73;95479.66;5032037;28;20449;-74
2023/02/28 09:27:26;;;;;;;17.13;9.50;;;;;;;12.00;92.14;95478.75;5032193;28;20437;-74
2023/02/28 09:29:52;;;;;;;23.70;10.30;;;;;;;11.93;93.55;95477.56;5032504;28;20434;-75
2023/02/28 09:32:19;;;;;;;15.73;8.60;;;;;;;11.66;93.08;95480.59;5031901;28;20509;-73
2023/02/28 09:34:47;;;;;;;23.83;10.80;;;;;;;11.56;95.16;95484.88;5032318;28;20478;-73
2023/02/28 09:37:14;;;;;;;22.80;11.30;;;;;;;11.55;95.95;95477.97;5032023;28;20450;-74
2023/02/28 09:39:41;;;;;;;18.30;10.10;;;;;;;11.59;97.17;95479.41;5032155;28;20450;-74
2023/02/28 09:42:23;;;;;;;22.33;10.60;;;;;;;11.71;96.63;95477.59;4997130;28;20443;-73
2023/02/28 09:44:51;;;;;;;20.30;10.87;;;;;;;11.76;93.91;95476.25;4998740;28;20489;-73
2023/02/28 09:47:27;;;;;;;16.60;10.00;;;;;;;11.70;94.89;95476.75;5031750;28;20450;-73
2023/02/28 09:49:59;;;;;;;23.20;10.70;;;;;;;11.54;96.44;95472.81;4996995;28;20438;-73
2023/02/28 09:52:30;;;;;;;21.73;11.07;;;;;;;11.50;95.48;95469.59;4996759;28;20426;-72
2023/02/28 09:54:57;;;;;;;25.93;11.77;;;;;;;11.40;96.52;95480.03;5031649;28;20458;-72
2023/02/28 09:57:34;;;;;;;29.43;10.27;;;;;;;11.38;96.91;95478.47;4996602;28;20521;-70
2023/02/28 10:00:10;;;;;;;17.77;10.63;;;;;;;11.45;97.15;95471.78;5031562;28;20858;-72
2023/02/28 10:02:57;;;;;;;21.07;9.87;;;;;;;11.35;95.58;95471.66;5031753;28;20573;-73
2023/02/28 10:05:29;;;;;;;19.83;9.93;;;;;;;11.44;97.21;95460.41;5031954;28;20458;-74
2023/02/28 10:08:07;;;;;;;23.07;10.97;;;;;;;11.37;96.82;95468.91;5031805;28;20446;-74
2023/02/28 10:10:40;;;;;;;24.43;10.97;;;;;;;11.18;97.01;95459.84;5031561;28;20520;-74
2023/02/28 10:13:16;;;;;;;24.17;11.60;;;;;;;11.32;100.00;95471.91;5031706;28;20458;-74
2023/02/28 10:15:45;;;;;;;32.23;10.97;;;;;;;11.21;97.66;95461.38;5031728;28;20454;-73
2023/02/28 10:18:16;;;;;;;18.10;9.97;;;;;;;11.33;98.21;95449.09;5031550;28;20446;-74
2023/02/28 10:20:45;;;;;;;19.30;10.03;;;;;;;11.36;97.19;95448.84;5031516;28;20454;-74
2023/02/28 10:23:20;;;;;;;20.07;11.03;;;;;;;11.42;96.99;95453.63;5031142;28;20999;-74
2023/02/28 10:25:54;;;;;;;26.90;12.03;;;;;;;11.45;96.28;95448.13;5035233;28;20508;-75
2023/02/28 10:28:21;;;;;;;17.63;10.03;;;;;;;11.51;96.22;95449.41;5035558;28;20934;-74
2023/02/28 10:30:51;;;;;;;24.20;10.50;;;;;;;11.36;95.80;95438.34;5035470;28;20438;-73
2023/02/28 10:33:24;;;;;;;24.23;10.67;;;;;;;11.60;98.42;95439.03;5035444;28;20528;-74
2023/02/28 10:35:53;;;;;;;28.67;12.10;;;;;;;11.65;95.52;95436.84;5035233;28;20941;-73
2023/02/28 10:38:23;;;;;;;19.60;9.43;;;;;;;11.71;95.00;95433.72;5035480;28;20447;-73
2023/02/28 10:40:49;;;;;;;30.87;12.70;;;;;;;11.41;96.86;95430.94;5035258;28;20464;-73
2023/02/28 10:43:22;;;;;;;18.13;9.07;;;;;;;11.35;95.62;95426.16;5035107;28;20556;-73
2023/02/28 10:46:03;;;;;;;28.33;11.50;;;;;;;11.51;96.17;95423.97;5034898;28;20442;-73
2023/02/28 10:48:38;;;;;;;28.93;14.47;;;;;;;11.61;96.89;95417.03;5034894;28;20442;-74
2023/02/28 10:51:09;;;;;;;19.93;11.70;;;;;;;11.71;96.00;95407.44;5035068;28;20845;-74
2023/02/28 10:53:40;;;;;;;22.03;11.93;;;;;;;11.70;95.69;95411.03;5034821;28;20446;-74
2023/02/28 10:56:17;;;;;;;32.80;11.80;;;;;;;11.86;95.60;95399.31;5034880;28;20441;-73
2023/02/28 10:58:51;;;;;;;22.53;11.80;;;;;;;11.83;94.17;95399.53;5034959;28;20470;-73
2023/02/28 11:01:21;;;;;;;15.27;9.37;;;;;;;11.64;94.87;95389.66;5035039;28;20508;-73
2023/02/28 11:03:48;;;;;;;20.73;11.50;;;;;;;11.58;95.44;95393.63;5035277;28;20486;-73
2023/02/28 11:06:20;;;;;;;29.47;13.70;;;;;;;11.69;96.20;95390.97;5035236;28;20963;-74
2023/02/28 11:08:50;;;;;;;32.80;13.13;;;;;;;11.74;95.46;95387.94;5035254;28;20454;-74
2023/02/28 11:11:17;;;;;;;13.63;9.80;;;;;;;11.64;95.82;95392.28;5034898;28;20496;-74
2023/02/28 11:13:47;;;;;;;25.50;15.30;;;;;;;11.47;97.41;95391.00;5034994;28;20446;-73
2023/02/28 11:16:15;;;;;;;29.23;13.90;;;;;;;11.57;98.16;95386.72;5034514;28;20447;-73
2023/02/28 11:18:48;;;;;;;29.70;16.43;;;;;;;11.52;99.38;95385.38;5034375;28;20806;-74
2023/02/28 11:21:23;;;;;;;24.40;13.10;;;;;;;11.59;97.31;95383.97;5034221;28;20447;-73
2023/02/28 11:23:53;;;;;;;21.37;13.70;;;;;;;11.44;98.54;95381.59;5034062;28;20490;-74
2023/02/28 11:26:42;;;;;;;31.23;14.50;;;;;;;11.58;96.37;95379.66;5034504;28;20496;-74